createdAt,value
2018-06-03T00:00:32.207Z,0
2018-06-03T00:01:33.566Z,0
2018-06-03T00:02:34.927Z,0
2018-06-03T00:03:36.279Z,0
2018-06-03T00:04:37.649Z,0
2018-06-03T00:05:39.006Z,0
2018-06-03T00:06:40.367Z,0
2018-06-03T00:07:41.893Z,0
2018-06-03T00:08:43.251Z,0
2018-06-03T00:09:44.622Z,0
2018-06-03T00:10:45.967Z,0
2018-06-03T00:11:47.325Z,0
2018-06-03T00:12:48.692Z,0
2018-06-03T00:13:50.058Z,0
2018-06-03T00:14:51.429Z,0
2018-06-03T00:15:52.780Z,0
2018-06-03T00:16:54.187Z,0
2018-06-03T00:17:55.526Z,0
2018-06-03T00:18:56.900Z,0
2018-06-03T00:19:58.263Z,0
2018-06-03T00:20:59.622Z,0
2018-06-03T00:22:00.988Z,0
2018-06-03T00:23:02.371Z,0
2018-06-03T00:24:03.728Z,0
2018-06-03T00:25:05.095Z,0
2018-06-03T00:26:06.454Z,0
2018-06-03T00:27:07.812Z,0
2018-06-03T00:28:09.174Z,0
2018-06-03T00:29:10.533Z,0
2018-06-03T00:30:11.899Z,0
2018-06-03T00:31:13.251Z,0
2018-06-03T00:32:14.614Z,0
2018-06-03T00:33:16.082Z,0
2018-06-03T00:34:17.441Z,0
2018-06-03T00:35:18.805Z,0
2018-06-03T00:36:20.157Z,0
2018-06-03T00:37:21.513Z,0
2018-06-03T00:38:22.877Z,0
2018-06-03T00:39:24.240Z,0
2018-06-03T00:40:25.605Z,0
2018-06-03T00:41:26.953Z,0
2018-06-03T00:42:28.314Z,0
2018-06-03T00:43:29.677Z,0
2018-06-03T00:44:31.033Z,0
2018-06-03T00:45:32.414Z,0
2018-06-03T00:46:33.779Z,0
2018-06-03T00:47:35.136Z,0
2018-06-03T00:48:36.504Z,0
2018-06-03T00:49:37.872Z,0
2018-06-03T00:50:39.231Z,0
2018-06-03T00:51:40.578Z,0
2018-06-03T00:52:41.938Z,0
2018-06-03T00:53:43.300Z,0
2018-06-03T00:54:44.665Z,0
2018-06-03T00:55:46.027Z,0
2018-06-03T00:56:47.392Z,0
2018-06-03T00:57:48.753Z,0
2018-06-03T00:58:50.100Z,0
2018-06-03T00:59:51.456Z,0
2018-06-03T01:00:52.822Z,0
2018-06-03T01:01:54.181Z,0
2018-06-03T01:02:55.533Z,0
2018-06-03T01:03:56.899Z,0
2018-06-03T01:04:58.251Z,0
2018-06-03T01:05:59.607Z,0
2018-06-03T01:07:00.972Z,0
2018-06-03T01:08:02.362Z,0
2018-06-03T01:09:03.721Z,0
2018-06-03T01:10:05.084Z,0
2018-06-03T01:11:06.445Z,0
2018-06-03T01:12:07.810Z,0
2018-06-03T01:13:09.158Z,0
2018-06-03T01:14:10.516Z,0
2018-06-03T01:15:11.874Z,0
2018-06-03T01:16:13.238Z,0
2018-06-03T01:17:14.591Z,0
2018-06-03T01:18:15.950Z,0
2018-06-03T01:19:17.312Z,0
2018-06-03T01:20:18.672Z,0
2018-06-03T01:21:20.030Z,0
2018-06-03T01:22:21.400Z,0
2018-06-03T01:23:22.732Z,0
2018-06-03T01:24:24.095Z,0
2018-06-03T01:25:25.463Z,0
2018-06-03T01:26:26.826Z,0
2018-06-03T01:27:28.189Z,0
2018-06-03T01:28:29.554Z,0
2018-06-03T01:29:30.903Z,0
2018-06-03T01:30:32.265Z,0
2018-06-03T01:31:33.630Z,0
2018-06-03T01:32:34.990Z,0
2018-06-03T01:33:36.347Z,0
2018-06-03T01:34:37.706Z,0
2018-06-03T01:35:39.058Z,0
2018-06-03T01:36:40.418Z,0
2018-06-03T01:37:41.962Z,0
2018-06-03T01:38:43.341Z,0
2018-06-03T01:39:44.701Z,0
2018-06-03T01:40:46.063Z,0
2018-06-03T01:41:47.427Z,0
2018-06-03T01:42:48.787Z,0
2018-06-03T01:43:50.146Z,0
2018-06-03T01:44:51.508Z,0
2018-06-03T01:45:52.866Z,0
2018-06-03T01:46:54.293Z,0
2018-06-03T01:47:55.649Z,0
2018-06-03T01:48:57.020Z,0
2018-06-03T01:49:58.381Z,0
2018-06-03T01:50:59.736Z,0
2018-06-03T01:52:01.098Z,0
2018-06-03T01:53:02.494Z,0
2018-06-03T01:54:03.847Z,0
2018-06-03T01:55:05.207Z,0
2018-06-03T01:56:06.567Z,0
2018-06-03T01:57:07.930Z,0
2018-06-03T01:58:09.292Z,0
2018-06-03T01:59:10.649Z,0
2018-06-03T02:00:12.011Z,0
2018-06-03T02:01:13.363Z,0
2018-06-03T02:02:14.736Z,0
2018-06-03T02:03:16.085Z,0
2018-06-03T02:04:17.444Z,0
2018-06-03T02:05:18.823Z,0
2018-06-03T02:06:20.180Z,0
2018-06-03T02:07:21.544Z,0
2018-06-03T02:08:22.894Z,0
2018-06-03T02:09:24.257Z,0
2018-06-03T02:10:25.624Z,0
2018-06-03T02:11:26.974Z,0
2018-06-03T02:12:28.333Z,0
2018-06-03T02:13:29.686Z,0
2018-06-03T02:14:31.047Z,0
2018-06-03T02:15:32.415Z,0
2018-06-03T02:16:33.785Z,0
2018-06-03T02:17:35.141Z,0
2018-06-03T02:18:36.496Z,0
2018-06-03T02:19:37.853Z,0
2018-06-03T02:20:39.208Z,0
2018-06-03T02:21:41.264Z,0
2018-06-03T02:22:42.631Z,0
2018-06-03T02:23:43.993Z,0
2018-06-03T02:24:45.355Z,0
2018-06-03T02:25:46.715Z,0
2018-06-03T02:26:48.078Z,0
2018-06-03T02:27:49.438Z,0
2018-06-03T02:28:50.807Z,0
2018-06-03T02:29:52.172Z,0
2018-06-03T02:30:53.525Z,0
2018-06-03T02:31:54.882Z,0
2018-06-03T02:32:56.247Z,0
2018-06-03T02:33:57.603Z,0
2018-06-03T02:34:58.961Z,0
2018-06-03T02:36:00.333Z,0
2018-06-03T02:37:01.695Z,0
2018-06-03T02:38:03.058Z,0
2018-06-03T02:39:04.415Z,0
2018-06-03T02:40:05.767Z,0
2018-06-03T02:41:07.132Z,0
2018-06-03T02:42:08.488Z,0
2018-06-03T02:43:09.853Z,0
2018-06-03T02:44:11.210Z,0
2018-06-03T02:45:12.577Z,0
2018-06-03T02:46:13.934Z,0
2018-06-03T02:47:15.288Z,0
2018-06-03T02:48:16.660Z,0
2018-06-03T02:49:18.014Z,0
2018-06-03T02:50:19.356Z,0
2018-06-03T02:51:20.730Z,0
2018-06-03T02:52:22.072Z,0
2018-06-03T02:53:23.430Z,0
2018-06-03T02:54:24.788Z,0
2018-06-03T02:55:26.144Z,0
2018-06-03T02:56:27.505Z,0
2018-06-03T02:57:28.864Z,0
2018-06-03T02:58:30.227Z,0
2018-06-03T02:59:32.509Z,0
2018-06-03T03:00:33.859Z,0
2018-06-03T03:01:35.222Z,0
2018-06-03T03:02:36.574Z,0
2018-06-03T03:03:37.943Z,0
2018-06-03T03:04:39.413Z,0
2018-06-03T03:05:40.778Z,0
2018-06-03T03:06:42.133Z,0
2018-06-03T03:07:43.499Z,0
2018-06-03T03:08:44.852Z,0
2018-06-03T03:09:46.212Z,0
2018-06-03T03:10:47.568Z,0
2018-06-03T03:11:48.936Z,5
2018-06-03T03:12:50.292Z,5
2018-06-03T03:13:51.666Z,5
2018-06-03T03:14:53.019Z,5
2018-06-03T03:15:54.375Z,5
2018-06-03T03:16:55.740Z,5
2018-06-03T03:17:57.095Z,5
2018-06-03T03:19:00.060Z,11
2018-06-03T03:20:01.440Z,11
2018-06-03T03:21:02.772Z,11
2018-06-03T03:22:04.130Z,11
2018-06-03T03:23:05.496Z,16
2018-06-03T03:24:06.857Z,16
2018-06-03T03:25:08.213Z,16
2018-06-03T03:26:09.577Z,16
2018-06-03T03:27:10.943Z,22
2018-06-03T03:28:12.326Z,22
2018-06-03T03:29:13.680Z,22
2018-06-03T03:30:15.043Z,22
2018-06-03T03:31:16.403Z,28
2018-06-03T03:32:17.775Z,28
2018-06-03T03:33:19.141Z,28
2018-06-03T03:34:20.505Z,33
2018-06-03T03:35:21.874Z,33
2018-06-03T03:36:23.238Z,33
2018-06-03T03:37:24.603Z,39
2018-06-03T03:38:25.965Z,39
2018-06-03T03:39:27.323Z,39
2018-06-03T03:40:28.680Z,45
2018-06-03T03:41:30.043Z,45
2018-06-03T03:42:33.133Z,50
2018-06-03T03:43:33.632Z,50
2018-06-03T03:44:35.000Z,50
2018-06-03T03:45:36.373Z,56
2018-06-03T03:46:37.733Z,56
2018-06-03T03:47:39.093Z,61
2018-06-03T03:48:40.454Z,61
2018-06-03T03:49:41.847Z,61
2018-06-03T03:50:43.211Z,67
2018-06-03T03:51:44.576Z,67
2018-06-03T03:52:45.974Z,73
2018-06-03T03:53:47.342Z,73
2018-06-03T03:54:48.728Z,78
2018-06-03T03:55:50.107Z,78
2018-06-03T03:56:51.478Z,78
2018-06-03T03:57:52.842Z,84
2018-06-03T03:58:54.986Z,84
2018-06-03T03:59:58.137Z,90
2018-06-03T04:00:58.549Z,90
2018-06-03T04:01:59.919Z,95
2018-06-03T04:03:01.281Z,95
2018-06-03T04:04:02.643Z,95
2018-06-03T04:05:04.009Z,101
2018-06-03T04:06:05.372Z,101
2018-06-03T04:07:06.734Z,106
2018-06-03T04:08:08.103Z,106
2018-06-03T04:09:09.457Z,112
2018-06-03T04:10:10.826Z,112
2018-06-03T04:11:12.186Z,112
2018-06-03T04:12:13.550Z,118
2018-06-03T04:13:14.955Z,118
2018-06-03T04:14:16.271Z,123
2018-06-03T04:15:17.641Z,123
2018-06-03T04:16:18.997Z,129
2018-06-03T04:17:20.362Z,129
2018-06-03T04:18:21.731Z,135
2018-06-03T04:19:23.085Z,135
2018-06-03T04:20:24.450Z,135
2018-06-03T04:21:25.811Z,140
2018-06-03T04:22:27.173Z,140
2018-06-03T04:23:28.537Z,146
2018-06-03T04:24:29.909Z,146
2018-06-03T04:25:32.135Z,151
2018-06-03T04:26:32.582Z,151
2018-06-03T04:27:33.945Z,157
2018-06-03T04:28:35.309Z,157
2018-06-03T04:29:36.674Z,163
2018-06-03T04:30:38.031Z,163
2018-06-03T04:31:39.394Z,168
2018-06-03T04:32:40.758Z,168
2018-06-03T04:33:42.119Z,174
2018-06-03T04:34:43.487Z,174
2018-06-03T04:35:44.844Z,174
2018-06-03T04:36:46.221Z,180
2018-06-03T04:37:47.581Z,180
2018-06-03T04:38:48.947Z,180
2018-06-03T04:39:50.317Z,185
2018-06-03T04:40:51.678Z,185
2018-06-03T04:41:53.088Z,185
2018-06-03T04:42:54.419Z,191
2018-06-03T04:43:55.787Z,191
2018-06-03T04:44:57.145Z,191
2018-06-03T04:45:58.518Z,196
2018-06-03T04:46:59.877Z,196
2018-06-03T04:48:01.240Z,196
2018-06-03T04:49:02.603Z,202
2018-06-03T04:50:03.968Z,202
2018-06-03T04:51:05.329Z,202
2018-06-03T04:52:06.701Z,208
2018-06-03T04:53:08.057Z,208
2018-06-03T04:54:09.429Z,208
2018-06-03T04:55:10.789Z,213
2018-06-03T04:56:12.149Z,213
2018-06-03T04:57:13.513Z,219
2018-06-03T04:58:14.872Z,219
2018-06-03T04:59:16.243Z,225
2018-06-03T05:00:17.607Z,225
2018-06-03T05:01:18.969Z,225
2018-06-03T05:02:20.339Z,230
2018-06-03T05:03:21.697Z,225
2018-06-03T05:04:23.065Z,225
2018-06-03T05:05:24.422Z,230
2018-06-03T05:06:25.785Z,236
2018-06-03T05:07:27.159Z,236
2018-06-03T05:08:28.528Z,236
2018-06-03T05:09:29.891Z,241
2018-06-03T05:10:31.258Z,241
2018-06-03T05:11:32.577Z,241
2018-06-03T05:12:33.944Z,247
2018-06-03T05:13:35.309Z,247
2018-06-03T05:14:36.684Z,247
2018-06-03T05:15:38.040Z,253
2018-06-03T05:16:39.404Z,253
2018-06-03T05:17:40.762Z,253
2018-06-03T05:18:42.139Z,253
2018-06-03T05:19:43.507Z,258
2018-06-03T05:20:44.875Z,258
2018-06-03T05:21:46.244Z,258
2018-06-03T05:22:47.606Z,264
2018-06-03T05:23:48.967Z,264
2018-06-03T05:24:50.329Z,264
2018-06-03T05:25:51.707Z,270
2018-06-03T05:26:53.073Z,270
2018-06-03T05:27:54.442Z,270
2018-06-03T05:28:55.807Z,275
2018-06-03T05:29:57.174Z,275
2018-06-03T05:30:58.533Z,275
2018-06-03T05:31:59.895Z,281
2018-06-03T05:33:01.261Z,281
2018-06-03T05:34:02.634Z,286
2018-06-03T05:35:03.994Z,343
2018-06-03T05:36:05.359Z,438
2018-06-03T05:37:06.730Z,568
2018-06-03T05:38:08.095Z,680
2018-06-03T05:39:09.459Z,691
2018-06-03T05:40:10.828Z,675
2018-06-03T05:41:12.193Z,652
2018-06-03T05:42:13.559Z,641
2018-06-03T05:43:14.927Z,635
2018-06-03T05:44:16.290Z,646
2018-06-03T05:45:17.657Z,675
2018-06-03T05:46:19.016Z,708
2018-06-03T05:47:20.390Z,703
2018-06-03T05:48:21.749Z,708
2018-06-03T05:49:23.131Z,748
2018-06-03T05:50:24.491Z,770
2018-06-03T05:51:25.857Z,900
2018-06-03T05:52:27.227Z,928
2018-06-03T05:53:28.598Z,860
2018-06-03T05:54:29.962Z,916
2018-06-03T05:55:31.333Z,900
2018-06-03T05:56:32.703Z,871
2018-06-03T05:57:34.075Z,888
2018-06-03T05:58:35.437Z,911
2018-06-03T05:59:36.810Z,956
2018-06-03T06:00:38.173Z,1051
2018-06-03T06:01:39.556Z,1423
2018-06-03T06:02:40.914Z,1501
2018-06-03T06:03:42.295Z,1558
2018-06-03T06:04:43.664Z,1378
2018-06-03T06:05:45.041Z,1383
2018-06-03T06:06:46.416Z,1378
2018-06-03T06:07:47.784Z,1350
2018-06-03T06:08:49.156Z,1350
2018-06-03T06:09:50.532Z,1400
2018-06-03T06:10:51.914Z,1361
2018-06-03T06:11:53.280Z,1411
2018-06-03T06:12:54.664Z,1434
2018-06-03T06:13:56.028Z,1434
2018-06-03T06:14:57.401Z,1428
2018-06-03T06:15:58.778Z,1462
2018-06-03T06:17:00.154Z,1501
2018-06-03T06:18:01.591Z,1473
2018-06-03T06:19:02.926Z,1462
2018-06-03T06:20:04.326Z,1490
2018-06-03T06:21:05.678Z,1490
2018-06-03T06:22:07.060Z,1513
2018-06-03T06:23:08.433Z,1501
2018-06-03T06:24:09.808Z,1524
2018-06-03T06:25:11.188Z,1586
2018-06-03T06:26:12.565Z,1620
2018-06-03T06:27:13.936Z,1608
2018-06-03T06:28:15.310Z,1620
2018-06-03T06:29:16.681Z,1603
2018-06-03T06:30:18.058Z,1608
2018-06-03T06:31:19.429Z,1620
2018-06-03T06:32:20.807Z,1681
2018-06-03T06:33:22.183Z,1749
2018-06-03T06:34:23.568Z,1715
2018-06-03T06:35:24.944Z,1710
2018-06-03T06:36:26.343Z,1732
2018-06-03T06:37:27.697Z,1743
2018-06-03T06:38:29.075Z,1726
2018-06-03T06:39:30.453Z,1788
2018-06-03T06:40:32.720Z,1755
2018-06-03T06:41:34.102Z,1771
2018-06-03T06:42:35.471Z,1822
2018-06-03T06:43:36.848Z,1845
2018-06-03T06:44:38.219Z,1788
2018-06-03T06:45:39.595Z,1822
2018-06-03T06:46:40.971Z,1856
2018-06-03T06:47:42.366Z,1901
2018-06-03T06:48:43.746Z,1912
2018-06-03T06:49:45.122Z,1929
2018-06-03T06:50:46.499Z,1940
2018-06-03T06:51:47.877Z,1918
2018-06-03T06:52:49.247Z,1906
2018-06-03T06:53:50.624Z,1918
2018-06-03T06:54:51.997Z,1991
2018-06-03T06:55:53.369Z,1968
2018-06-03T06:56:54.805Z,1951
2018-06-03T06:57:56.173Z,1974
2018-06-03T06:58:57.555Z,1974
2018-06-03T06:59:58.932Z,1974
2018-06-03T07:01:00.320Z,1963
2018-06-03T07:02:02.484Z,2002
2018-06-03T07:03:03.866Z,2070
2018-06-03T07:04:05.242Z,2036
2018-06-03T07:05:06.619Z,1946
2018-06-03T07:06:07.996Z,1951
2018-06-03T07:07:09.386Z,2036
2018-06-03T07:08:10.760Z,2053
2018-06-03T07:09:12.140Z,1996
2018-06-03T07:10:13.521Z,2064
2018-06-03T07:11:14.903Z,2058
2018-06-03T07:12:16.281Z,2092
2018-06-03T07:13:17.660Z,2103
2018-06-03T07:14:19.038Z,2131
2018-06-03T07:15:20.418Z,2154
2018-06-03T07:16:21.800Z,2160
2018-06-03T07:17:23.188Z,2165
2018-06-03T07:18:24.579Z,2171
2018-06-03T07:19:25.954Z,2205
2018-06-03T07:20:27.331Z,2148
2018-06-03T07:21:28.714Z,2143
2018-06-03T07:22:30.148Z,2176
2018-06-03T07:23:31.690Z,2171
2018-06-03T07:24:33.074Z,2143
2018-06-03T07:25:34.453Z,2103
2018-06-03T07:26:35.836Z,2182
2018-06-03T07:27:37.244Z,2255
2018-06-03T07:28:38.623Z,2255
2018-06-03T07:29:40.008Z,2227
2018-06-03T07:30:41.386Z,2266
2018-06-03T07:31:42.770Z,2278
2018-06-03T07:32:44.151Z,2244
2018-06-03T07:33:45.534Z,2278
2018-06-03T07:34:46.918Z,2356
2018-06-03T07:35:48.310Z,2418
2018-06-03T07:36:49.701Z,2401
2018-06-03T07:37:51.076Z,2396
2018-06-03T07:38:52.470Z,2536
2018-06-03T07:39:53.856Z,2508
2018-06-03T07:40:55.241Z,2413
2018-06-03T07:41:56.630Z,2390
2018-06-03T07:42:58.029Z,2418
2018-06-03T07:43:59.418Z,2508
2018-06-03T07:45:00.798Z,2503
2018-06-03T07:46:02.179Z,2452
2018-06-03T07:47:03.561Z,2390
2018-06-03T07:48:04.949Z,2486
2018-06-03T07:49:06.340Z,2497
2018-06-03T07:50:07.752Z,2491
2018-06-03T07:51:09.156Z,2559
2018-06-03T07:52:10.489Z,2570
2018-06-03T07:53:11.890Z,2508
2018-06-03T07:54:13.262Z,2390
2018-06-03T07:55:14.643Z,2463
2018-06-03T07:56:16.027Z,2610
2018-06-03T07:57:17.442Z,2598
2018-06-03T07:58:18.756Z,2621
2018-06-03T07:59:20.127Z,2604
2018-06-03T08:00:21.519Z,2621
2018-06-03T08:01:22.892Z,2643
2018-06-03T08:02:24.279Z,2660
2018-06-03T08:03:25.656Z,2638
2018-06-03T08:04:27.049Z,2638
2018-06-03T08:05:28.424Z,2745
2018-06-03T08:06:29.813Z,2700
2018-06-03T08:07:31.213Z,2688
2018-06-03T08:08:32.586Z,2666
2018-06-03T08:09:33.972Z,2705
2018-06-03T08:10:35.355Z,2745
2018-06-03T08:11:36.745Z,2728
2018-06-03T08:12:38.128Z,2694
2018-06-03T08:13:39.567Z,2593
2018-06-03T08:14:40.904Z,2638
2018-06-03T08:15:42.288Z,2688
2018-06-03T08:16:43.691Z,2688
2018-06-03T08:17:45.075Z,2745
2018-06-03T08:18:46.464Z,2790
2018-06-03T08:19:47.840Z,2773
2018-06-03T08:20:49.229Z,2902
2018-06-03T08:21:50.614Z,2874
2018-06-03T08:22:52.106Z,2761
2018-06-03T08:23:53.358Z,2711
2018-06-03T08:24:54.738Z,2632
2018-06-03T08:25:56.123Z,2784
2018-06-03T08:26:57.517Z,2913
2018-06-03T08:27:58.910Z,2863
2018-06-03T08:29:00.300Z,2835
2018-06-03T08:30:01.724Z,2925
2018-06-03T08:31:03.107Z,2941
2018-06-03T08:32:04.497Z,2885
2018-06-03T08:33:05.882Z,2857
2018-06-03T08:34:07.261Z,2908
2018-06-03T08:35:08.655Z,2902
2018-06-03T08:36:10.043Z,2851
2018-06-03T08:37:11.421Z,2778
2018-06-03T08:38:12.814Z,2874
2018-06-03T08:39:14.244Z,3043
2018-06-03T08:40:15.573Z,2986
2018-06-03T08:41:16.970Z,2908
2018-06-03T08:42:18.359Z,3015
2018-06-03T08:43:19.749Z,3082
2018-06-03T08:44:21.137Z,3043
2018-06-03T08:45:22.532Z,3020
2018-06-03T08:46:23.913Z,3020
2018-06-03T08:47:25.297Z,2953
2018-06-03T08:48:26.702Z,3026
2018-06-03T08:49:28.085Z,3043
2018-06-03T08:50:29.494Z,3037
2018-06-03T08:51:30.881Z,3009
2018-06-03T08:52:32.265Z,3031
2018-06-03T08:53:33.662Z,3116
2018-06-03T08:54:35.049Z,3234
2018-06-03T08:55:36.430Z,3161
2018-06-03T08:56:37.826Z,3166
2018-06-03T08:57:39.220Z,3228
2018-06-03T08:58:40.616Z,3223
2018-06-03T08:59:41.997Z,3217
2018-06-03T09:00:43.386Z,3138
2018-06-03T09:01:44.776Z,3150
2018-06-03T09:02:46.173Z,3189
2018-06-03T09:03:47.564Z,3121
2018-06-03T09:04:48.950Z,3065
2018-06-03T09:05:50.347Z,2981
2018-06-03T09:06:51.750Z,3150
2018-06-03T09:07:53.146Z,3127
2018-06-03T09:08:54.535Z,3009
2018-06-03T09:09:55.940Z,3127
2018-06-03T09:10:57.327Z,3166
2018-06-03T09:11:58.712Z,3043
2018-06-03T09:13:00.109Z,3003
2018-06-03T09:14:01.490Z,3110
2018-06-03T09:15:02.899Z,3043
2018-06-03T09:16:04.284Z,3065
2018-06-03T09:17:05.694Z,3144
2018-06-03T09:18:07.073Z,3099
2018-06-03T09:19:08.468Z,3020
2018-06-03T09:20:09.867Z,3009
2018-06-03T09:21:11.249Z,3217
2018-06-03T09:22:12.638Z,3256
2018-06-03T09:23:14.024Z,3296
2018-06-03T09:24:15.420Z,3324
2018-06-03T09:25:16.805Z,3470
2018-06-03T09:26:18.191Z,3616
2018-06-03T09:27:19.585Z,3470
2018-06-03T09:28:20.974Z,3397
2018-06-03T09:29:22.360Z,3290
2018-06-03T09:30:23.754Z,3330
2018-06-03T09:31:25.144Z,3318
2018-06-03T09:32:26.539Z,3273
2018-06-03T09:33:27.928Z,3200
2018-06-03T09:34:29.327Z,3195
2018-06-03T09:35:30.716Z,3290
2018-06-03T09:36:32.143Z,3487
2018-06-03T09:37:33.533Z,3555
2018-06-03T09:38:35.003Z,3391
2018-06-03T09:39:36.398Z,2536
2018-06-03T09:40:37.785Z,1890
2018-06-03T09:41:39.170Z,2593
2018-06-03T09:42:40.554Z,3459
2018-06-03T09:43:41.951Z,3515
2018-06-03T09:44:43.568Z,3448
2018-06-03T09:45:44.953Z,3560
2018-06-03T09:46:46.346Z,3633
2018-06-03T09:47:47.740Z,3465
2018-06-03T09:48:49.124Z,3504
2018-06-03T09:49:50.513Z,3718
2018-06-03T09:50:51.936Z,3600
2018-06-03T09:51:53.379Z,3543
2018-06-03T09:52:54.754Z,3645
2018-06-03T09:53:56.157Z,3673
2018-06-03T09:54:57.591Z,3661
2018-06-03T09:55:59.093Z,3571
2018-06-03T09:57:00.530Z,3650
2018-06-03T09:58:02.640Z,3695
2018-06-03T09:59:04.031Z,3763
2018-06-03T10:00:05.424Z,3706
2018-06-03T10:01:06.818Z,3678
2018-06-03T10:02:08.203Z,3633
2018-06-03T10:03:09.613Z,3510
2018-06-03T10:04:11.055Z,3645
2018-06-03T10:05:12.402Z,3723
2018-06-03T10:06:13.813Z,3808
2018-06-03T10:07:15.187Z,3735
2018-06-03T10:08:16.589Z,3628
2018-06-03T10:09:17.984Z,3583
2018-06-03T10:10:19.472Z,3526
2018-06-03T10:11:20.828Z,3622
2018-06-03T10:12:22.243Z,3751
2018-06-03T10:13:23.648Z,3633
2018-06-03T10:14:25.036Z,3442
2018-06-03T10:15:26.380Z,3498
2018-06-03T10:16:27.784Z,3639
2018-06-03T10:17:29.168Z,3684
2018-06-03T10:18:30.555Z,3633
2018-06-03T10:19:31.984Z,3628
2018-06-03T10:20:33.384Z,3690
2018-06-03T10:21:34.838Z,3825
2018-06-03T10:22:36.205Z,3735
2018-06-03T10:23:37.611Z,3605
2018-06-03T10:24:39.041Z,3757
2018-06-03T10:25:40.431Z,3836
2018-06-03T10:26:41.847Z,3785
2018-06-03T10:27:43.255Z,3723
2018-06-03T10:28:44.659Z,3813
2018-06-03T10:29:46.046Z,3746
2018-06-03T10:30:47.459Z,3521
2018-06-03T10:31:48.861Z,3448
2018-06-03T10:32:50.295Z,3420
2018-06-03T10:33:51.696Z,3476
2018-06-03T10:34:53.091Z,3645
2018-06-03T10:35:54.494Z,3661
2018-06-03T10:36:55.891Z,3661
2018-06-03T10:37:57.283Z,3718
2018-06-03T10:38:58.693Z,3695
2018-06-03T10:40:00.088Z,3751
2018-06-03T10:41:01.536Z,3718
2018-06-03T10:42:02.872Z,3785
2018-06-03T10:43:04.294Z,3830
2018-06-03T10:44:05.667Z,3802
2018-06-03T10:45:07.105Z,3830
2018-06-03T10:46:08.501Z,3718
2018-06-03T10:47:09.891Z,3763
2018-06-03T10:48:11.293Z,3802
2018-06-03T10:49:12.694Z,3633
2018-06-03T10:50:14.070Z,3639
2018-06-03T10:51:15.480Z,3729
2018-06-03T10:52:16.883Z,3785
2018-06-03T10:53:18.281Z,3735
2018-06-03T10:54:19.730Z,3780
2018-06-03T10:55:21.073Z,3813
2018-06-03T10:56:22.464Z,3915
2018-06-03T10:57:23.855Z,3892
2018-06-03T10:58:25.278Z,3881
2018-06-03T10:59:26.668Z,3920
2018-06-03T11:00:28.066Z,3802
2018-06-03T11:01:29.457Z,3751
2018-06-03T11:02:30.851Z,3886
2018-06-03T11:03:32.269Z,3813
2018-06-03T11:04:33.665Z,3796
2018-06-03T11:05:35.112Z,3931
2018-06-03T11:06:36.460Z,3864
2018-06-03T11:07:37.849Z,3729
2018-06-03T11:08:39.254Z,3566
2018-06-03T11:09:40.658Z,3633
2018-06-03T11:10:42.059Z,3695
2018-06-03T11:11:43.478Z,3796
2018-06-03T11:12:44.883Z,3825
2018-06-03T11:13:46.272Z,3774
2018-06-03T11:14:47.667Z,3763
2018-06-03T11:15:49.054Z,3886
2018-06-03T11:16:50.445Z,4027
2018-06-03T11:17:51.840Z,3982
2018-06-03T11:18:53.235Z,3757
2018-06-03T11:19:54.640Z,3690
2018-06-03T11:20:56.032Z,3836
2018-06-03T11:21:57.429Z,3903
2018-06-03T11:22:58.824Z,3796
2018-06-03T11:24:00.216Z,3791
2018-06-03T11:25:01.665Z,3712
2018-06-03T11:26:03.108Z,877
2018-06-03T11:27:04.532Z,748
2018-06-03T11:28:05.988Z,720
2018-06-03T11:29:07.381Z,703
2018-06-03T11:30:08.815Z,669
2018-06-03T11:31:10.267Z,658
2018-06-03T11:32:11.654Z,680
2018-06-03T11:33:13.050Z,708
2018-06-03T11:34:14.451Z,781
2018-06-03T11:35:15.838Z,832
2018-06-03T11:36:17.278Z,1569
2018-06-03T11:37:18.663Z,2098
2018-06-03T11:38:20.212Z,1389
2018-06-03T11:39:21.742Z,956
2018-06-03T11:40:23.079Z,978
2018-06-03T11:41:24.473Z,1164
2018-06-03T11:42:25.859Z,2700
2018-06-03T11:43:27.312Z,3819
2018-06-03T11:44:28.707Z,3870
2018-06-03T11:45:30.092Z,3808
2018-06-03T11:46:32.037Z,3757
2018-06-03T11:47:33.610Z,3763
2018-06-03T11:48:35.010Z,3611
2018-06-03T11:49:36.437Z,2025
2018-06-03T11:50:37.815Z,1074
2018-06-03T11:51:39.279Z,1631
2018-06-03T11:52:40.614Z,3628
2018-06-03T11:53:42.016Z,3605
2018-06-03T11:54:43.492Z,3605
2018-06-03T11:55:44.911Z,3673
2018-06-03T11:56:46.299Z,3622
2018-06-03T11:57:47.715Z,3600
2018-06-03T11:58:49.097Z,3701
2018-06-03T11:59:50.482Z,3791
2018-06-03T12:00:51.886Z,3825
2018-06-03T12:01:53.338Z,3712
2018-06-03T12:02:54.720Z,3645
2018-06-03T12:03:56.115Z,3746
2018-06-03T12:04:57.502Z,3746
2018-06-03T12:05:58.894Z,3684
2018-06-03T12:07:00.329Z,3414
2018-06-03T12:08:01.762Z,3650
2018-06-03T12:09:03.172Z,3768
2018-06-03T12:10:04.552Z,3746
2018-06-03T12:11:05.942Z,3673
2018-06-03T12:12:07.348Z,3690
2018-06-03T12:13:08.736Z,3650
2018-06-03T12:14:10.120Z,3600
2018-06-03T12:15:12.287Z,3645
2018-06-03T12:16:12.846Z,3594
2018-06-03T12:17:14.242Z,3465
2018-06-03T12:18:15.645Z,3611
2018-06-03T12:19:17.038Z,3661
2018-06-03T12:20:18.431Z,3493
2018-06-03T12:21:19.953Z,3318
2018-06-03T12:22:21.339Z,3459
2018-06-03T12:23:22.731Z,3498
2018-06-03T12:24:24.132Z,3391
2018-06-03T12:25:25.541Z,3279
2018-06-03T12:26:26.938Z,3476
2018-06-03T12:27:28.329Z,3425
2018-06-03T12:28:29.775Z,3442
2018-06-03T12:29:31.090Z,3661
2018-06-03T12:30:32.522Z,3729
2018-06-03T12:31:33.927Z,3616
2018-06-03T12:32:35.325Z,3515
2018-06-03T12:33:36.729Z,3622
2018-06-03T12:34:38.116Z,3543
2018-06-03T12:35:39.510Z,3408
2018-06-03T12:36:41.787Z,3459
2018-06-03T12:37:42.348Z,3245
2018-06-03T12:38:43.744Z,2795
2018-06-03T12:39:45.156Z,2424
2018-06-03T12:40:46.542Z,2621
2018-06-03T12:41:47.961Z,3161
2018-06-03T12:42:49.329Z,3397
2018-06-03T12:43:50.737Z,3442
2018-06-03T12:44:52.138Z,3133
2018-06-03T12:45:53.534Z,3150
2018-06-03T12:46:55.010Z,3020
2018-06-03T12:47:56.410Z,3060
2018-06-03T12:48:57.792Z,3060
2018-06-03T12:49:59.200Z,2953
2018-06-03T12:51:00.590Z,3178
2018-06-03T12:52:02.000Z,3256
2018-06-03T12:53:03.413Z,3127
2018-06-03T12:54:04.799Z,2964
2018-06-03T12:55:06.197Z,2688
2018-06-03T12:56:07.582Z,2531
2018-06-03T12:57:08.972Z,2148
2018-06-03T12:58:10.365Z,1631
2018-06-03T12:59:11.755Z,1496
2018-06-03T13:00:13.145Z,1468
2018-06-03T13:01:14.534Z,1468
2018-06-03T13:02:16.050Z,1473
2018-06-03T13:03:17.439Z,1479
2018-06-03T13:04:18.829Z,1490
2018-06-03T13:05:20.340Z,1490
2018-06-03T13:06:21.786Z,1496
2018-06-03T13:07:23.129Z,1490
2018-06-03T13:08:24.537Z,1468
2018-06-03T13:09:25.925Z,1518
2018-06-03T13:10:27.313Z,1535
2018-06-03T13:11:28.859Z,1524
2018-06-03T13:12:30.255Z,1513
2018-06-03T13:13:31.671Z,1496
2018-06-03T13:14:33.069Z,1535
2018-06-03T13:15:34.462Z,1530
2018-06-03T13:16:35.845Z,1659
2018-06-03T13:17:37.278Z,1665
2018-06-03T13:18:38.727Z,1665
2018-06-03T13:19:40.082Z,1698
2018-06-03T13:20:41.475Z,1710
2018-06-03T13:21:42.883Z,1760
2018-06-03T13:22:44.265Z,1777
2018-06-03T13:23:45.652Z,1749
2018-06-03T13:24:47.046Z,1648
2018-06-03T13:25:48.437Z,1845
2018-06-03T13:26:49.816Z,1850
2018-06-03T13:27:51.214Z,1805
2018-06-03T13:28:52.602Z,1856
2018-06-03T13:29:54.005Z,1878
2018-06-03T13:30:55.397Z,1878
2018-06-03T13:31:56.830Z,1867
2018-06-03T13:32:58.133Z,1878
2018-06-03T13:33:59.520Z,1895
2018-06-03T13:35:00.909Z,1906
2018-06-03T13:36:02.303Z,1912
2018-06-03T13:37:03.713Z,1929
2018-06-03T13:38:05.094Z,1935
2018-06-03T13:39:06.482Z,1918
2018-06-03T13:40:07.863Z,1951
2018-06-03T13:41:09.283Z,1951
2018-06-03T13:42:10.675Z,1940
2018-06-03T13:43:12.077Z,1957
2018-06-03T13:44:13.459Z,1918
2018-06-03T13:45:14.854Z,1845
2018-06-03T13:46:16.253Z,1816
2018-06-03T13:47:17.640Z,1873
2018-06-03T13:48:19.029Z,1873
2018-06-03T13:49:20.419Z,1833
2018-06-03T13:50:21.808Z,1816
2018-06-03T13:51:23.208Z,1811
2018-06-03T13:52:24.595Z,1811
2018-06-03T13:53:25.980Z,1788
2018-06-03T13:54:27.363Z,1755
2018-06-03T13:55:28.750Z,1766
2018-06-03T13:56:30.138Z,1766
2018-06-03T13:57:32.478Z,1760
2018-06-03T13:58:33.880Z,1766
2018-06-03T13:59:35.266Z,1743
2018-06-03T14:00:36.776Z,1721
2018-06-03T14:01:38.164Z,1681
2018-06-03T14:02:39.546Z,1681
2018-06-03T14:03:40.933Z,1676
2018-06-03T14:04:42.335Z,1597